Time;durP1;ratioP1;P1;durP2;ratioP2;P2;SDS_P1;SDS_P2;PMS_P1;PMS_P2;Temp;Humidity;BMP_temperature;BMP_pressure;BME280_temperature;BME280_humidity;BME280_pressure;Samples;Min_cycle;Max_cycle;Signal;HPM_P1;HPM_P2
2021/05/29 00:01:04;;;;;;;14.43;6.38;;;15.90;62.10;;;;;;5058099;28;20471;-72
2021/05/29 00:03:30;;;;;;;14.48;6.80;;;15.80;62.50;;;;;;5074666;28;20052;-72
2021/05/29 00:05:57;;;;;;;12.40;6.50;;;15.80;62.90;;;;;;5074643;28;20072;-72
2021/05/29 00:08:23;;;;;;;12.18;5.88;;;15.80;62.50;;;;;;5074612;28;20053;-71
2021/05/29 00:10:55;;;;;;;7.82;3.72;;;15.70;63.30;;;;;;5074670;28;20048;-72
2021/05/29 00:13:23;;;;;;;8.23;3.28;;;15.70;63.40;;;;;;5074708;28;20040;-72
2021/05/29 00:15:50;;;;;;;7.25;4.05;;;15.60;63.20;;;;;;5074654;28;20043;-72
2021/05/29 00:18:17;;;;;;;9.93;3.65;;;15.60;63.30;;;;;;5074479;28;20067;-72
2021/05/29 00:20:44;;;;;;;7.00;3.28;;;15.40;63.10;;;;;;5074594;28;20039;-72
2021/05/29 00:23:12;;;;;;;7.10;2.88;;;15.40;63.30;;;;;;5092501;28;20487;-71
2021/05/29 00:25:39;;;;;;;5.75;2.95;;;15.40;63.20;;;;;;5074461;28;20057;-72
2021/05/29 00:28:06;;;;;;;4.93;2.55;;;15.40;63.10;;;;;;5074457;28;20040;-72
2021/05/29 00:30:32;;;;;;;6.20;2.42;;;15.40;62.90;;;;;;5092439;28;20070;-72
2021/05/29 00:32:58;;;;;;;4.25;2.00;;;15.40;62.80;;;;;;5074423;28;20558;-72
2021/05/29 00:35:25;;;;;;;5.05;2.47;;;15.40;62.90;;;;;;5092374;28;20052;-71
2021/05/29 00:37:51;;;;;;;5.22;2.70;;;15.40;62.80;;;;;;5092432;28;20120;-72
2021/05/29 00:40:17;;;;;;;;;;;15.40;62.20;;;;;;5074824;28;20036;-72
2021/05/29 00:42:44;;;;;;;5.50;2.40;;;15.40;62.00;;;;;;5074274;28;20003;-71
2021/05/29 00:45:10;;;;;;;;;;;15.40;62.50;;;;;;5092632;28;20078;-71
2021/05/29 00:47:36;;;;;;;8.30;2.95;;;15.30;61.90;;;;;;5092304;28;19916;-72
2021/05/29 00:50:06;;;;;;;;;;;15.30;62.60;;;;;;5092685;28;20079;-71
2021/05/29 00:52:35;;;;;;;7.22;3.03;;;15.30;62.10;;;;;;5091087;28;19927;-72
2021/05/29 00:55:20;;;;;;;5.00;2.83;;;15.20;62.80;;;;;;5074000;28;20416;-72
2021/05/29 00:57:50;;;;;;;8.27;3.35;;;15.20;63.20;;;;;;5092229;28;20044;-72
2021/05/29 01:00:20;;;;;;;7.75;3.65;;;15.20;63.20;;;;;;5059333;28;20393;-72
2021/05/29 01:02:48;;;;;;;6.97;3.67;;;15.20;63.30;;;;;;5077761;28;20432;-72
2021/05/29 01:05:18;;;;;;;6.13;2.85;;;15.20;63.40;;;;;;5077590;28;20090;-72
2021/05/29 01:08:03;;;;;;;6.00;2.53;;;15.20;63.50;;;;;;5077897;28;20044;-72
2021/05/29 01:10:29;;;;;;;7.28;2.92;;;15.20;62.80;;;;;;5095627;28;20063;-71
2021/05/29 01:12:58;;;;;;;;;;;15.20;63.30;;;;;;5096202;28;20066;-71
2021/05/29 01:15:25;;;;;;;5.28;2.30;;;15.20;62.70;;;;;;5095580;28;19918;-72
2021/05/29 01:17:51;;;;;;;6.05;2.40;;;15.20;62.50;;;;;;5095487;28;20124;-72
2021/05/29 01:20:19;;;;;;;7.20;2.25;;;15.20;63.30;;;;;;5095489;28;20392;-72
2021/05/29 01:23:05;;;;;;;5.95;2.38;;;15.20;63.40;;;;;;5060599;28;20552;-71
2021/05/29 01:25:41;;;;;;;5.95;2.42;;;15.20;63.30;;;;;;5077248;28;20138;-72
2021/05/29 01:28:29;;;;;;;6.25;2.78;;;15.20;63.30;;;;;;5095677;28;20396;-71
2021/05/29 01:31:01;;;;;;;5.50;2.80;;;15.30;63.20;;;;;;5077312;28;20036;-72
2021/05/29 01:33:31;;;;;;;6.95;2.70;;;15.30;63.20;;;;;;5095271;28;20118;-71
2021/05/29 01:36:02;;;;;;;5.03;2.40;;;15.30;63.30;;;;;;5095417;28;20035;-72
2021/05/29 01:38:29;;;;;;;5.65;2.78;;;15.30;63.50;;;;;;5095207;28;20040;-72
2021/05/29 01:41:15;;;;;;;5.50;2.75;;;15.30;62.80;;;;;;5095265;28;20540;-72
2021/05/29 01:43:44;;;;;;;7.53;2.83;;;15.30;63.40;;;;;;5060162;28;20078;-72
2021/05/29 01:46:13;;;;;;;8.68;3.47;;;15.30;63.30;;;;;;5076957;28;20040;-72
2021/05/29 01:48:54;;;;;;;6.10;2.85;;;15.30;63.40;;;;;;5060139;28;20036;-72
2021/05/29 01:51:40;;;;;;;5.63;2.40;;;15.30;63.70;;;;;;5061990;28;20044;-72
2021/05/29 01:54:07;;;;;;;4.88;2.10;;;15.40;63.80;;;;;;5060094;28;20036;-71
2021/05/29 01:56:33;;;;;;;;;;;15.40;63.60;;;;;;5077120;28;20386;-71
2021/05/29 01:58:59;;;;;;;7.22;2.75;;;15.40;62.40;;;;;;5094747;28;20302;-72
2021/05/29 02:01:26;;;;;;;4.38;2.08;;;15.40;63.20;;;;;;5076831;28;20515;-72
2021/05/29 02:03:52;;;;;;;6.47;2.75;;;15.40;63.30;;;;;;5094576;28;20068;-71
2021/05/29 02:06:18;;;;;;;7.45;2.80;;;15.40;63.40;;;;;;5094783;28;20542;-71
2021/05/29 02:08:45;;;;;;;7.30;3.13;;;15.40;63.50;;;;;;5076378;28;20036;-72
2021/05/29 02:11:11;;;;;;;;;;;15.40;63.60;;;;;;5059176;28;20040;-71
2021/05/29 02:13:40;;;;;;;7.72;3.42;;;15.40;62.90;;;;;;5076357;28;19920;-72
2021/05/29 02:16:10;;;;;;;9.90;3.78;;;15.30;63.60;;;;;;5059859;28;20051;-72
2021/05/29 02:18:38;;;;;;;6.70;3.33;;;15.40;63.90;;;;;;5076211;28;20424;-72
2021/05/29 02:21:24;;;;;;;7.57;3.08;;;15.40;64.00;;;;;;5076351;28;20032;-72
2021/05/29 02:23:51;;;;;;;7.03;3.33;;;15.40;64.20;;;;;;5094250;28;20036;-71
2021/05/29 02:26:23;;;;;;;7.00;3.20;;;15.40;64.30;;;;;;5076152;28;20123;-72
2021/05/29 02:28:54;;;;;;;6.35;2.92;;;15.40;64.50;;;;;;5076047;28;20071;-71
2021/05/29 02:31:21;;;;;;;6.32;3.33;;;15.50;64.50;;;;;;5076495;28;20424;-72
2021/05/29 02:33:48;;;;;;;7.15;3.15;;;15.50;64.20;;;;;;5093932;28;20062;-72
2021/05/29 02:36:15;;;;;;;5.47;2.83;;;15.40;64.30;;;;;;5075948;28;20040;-72
2021/05/29 02:38:41;;;;;;;7.05;3.20;;;15.50;63.90;;;;;;5075805;28;20442;-71
2021/05/29 02:41:12;;;;;;;7.80;2.90;;;15.50;65.10;;;;;;5075742;28;20072;-72
2021/05/29 02:43:40;;;;;;;6.57;2.90;;;15.40;65.30;;;;;;5076159;28;20492;-72
2021/05/29 02:46:09;;;;;;;6.65;3.25;;;15.40;65.60;;;;;;5075708;28;20044;-72
2021/05/29 02:48:37;;;;;;;6.30;3.17;;;15.40;65.80;;;;;;5075654;28;20044;-71
2021/05/29 02:51:04;;;;;;;9.52;2.78;;;15.30;65.70;;;;;;5058881;28;20181;-71
2021/05/29 02:53:30;;;;;;;6.38;2.72;;;15.30;65.80;;;;;;5075579;28;20036;-73
2021/05/29 02:55:57;;;;;;;6.55;2.88;;;15.30;65.30;;;;;;5075512;28;20526;-72
2021/05/29 02:58:23;;;;;;;;;;;15.40;65.70;;;;;;5076029;28;20102;-72
2021/05/29 03:00:49;;;;;;;6.13;2.88;;;15.40;64.40;;;;;;5075472;28;19916;-72
2021/05/29 03:03:16;;;;;;;6.32;2.72;;;15.40;65.40;;;;;;5093844;28;20036;-72
2021/05/29 03:05:47;;;;;;;5.85;2.60;;;15.40;65.60;;;;;;5093474;28;20480;-72
2021/05/29 03:08:16;;;;;;;5.82;2.40;;;15.40;65.80;;;;;;5075312;28;20404;-71
2021/05/29 03:10:45;;;;;;;5.57;2.50;;;15.30;65.90;;;;;;5075369;28;20042;-71
2021/05/29 03:13:12;;;;;;;5.65;2.60;;;15.30;66.00;;;;;;5093298;28;20044;-72
2021/05/29 03:15:38;;;;;;;5.35;2.40;;;15.30;66.20;;;;;;5075220;28;20047;-72
2021/05/29 03:18:06;;;;;;;6.65;2.60;;;15.30;66.20;;;;;;5075264;28;20089;-72
2021/05/29 03:20:34;;;;;;;9.45;2.90;;;15.30;66.20;;;;;;5075096;28;20077;-72
2021/05/29 03:23:00;;;;;;;7.13;2.78;;;15.20;66.20;;;;;;5074835;28;20451;-72
2021/05/29 03:25:27;;;;;;;;;;;15.20;66.60;;;;;;5093641;28;20047;-71
2021/05/29 03:27:54;;;;;;;4.90;2.42;;;15.10;66.00;;;;;;5075189;28;19967;-71
2021/05/29 03:30:25;;;;;;;7.05;2.45;;;15.10;65.80;;;;;;5093055;28;20060;-71
2021/05/29 03:32:52;;;;;;;4.38;2.40;;;15.10;66.50;;;;;;5075117;28;20032;-72
2021/05/29 03:35:19;;;;;;;6.38;2.38;;;15.10;66.60;;;;;;5074865;28;20102;-72
2021/05/29 03:37:46;;;;;;;8.20;2.75;;;15.10;66.60;;;;;;5075004;28;20040;-71
2021/05/29 03:40:14;;;;;;;6.38;2.65;;;15.10;66.20;;;;;;5092943;28;20036;-71
2021/05/29 03:42:42;;;;;;;8.63;2.83;;;15.10;66.70;;;;;;5093035;28;20038;-71
2021/05/29 03:45:12;;;;;;;5.30;2.65;;;15.20;66.70;;;;;;5074676;28;20050;-72
2021/05/29 03:47:40;;;;;;;6.03;2.58;;;15.20;66.60;;;;;;5075279;28;20040;-72
2021/05/29 03:50:07;;;;;;;5.00;2.63;;;15.20;66.60;;;;;;5074726;28;20040;-71
2021/05/29 03:52:33;;;;;;;6.22;2.60;;;15.20;66.60;;;;;;5092894;28;20557;-71
2021/05/29 03:54:59;;;;;;;;;;;15.20;66.60;;;;;;5093516;28;20036;-71
2021/05/29 03:57:25;;;;;;;5.70;3.00;;;15.20;65.50;;;;;;5074831;28;20006;-72
2021/05/29 03:59:52;;;;;;;5.10;2.42;;;15.20;66.60;;;;;;5074682;28;20040;-72
2021/05/29 04:02:18;;;;;;;6.95;2.40;;;15.10;66.70;;;;;;5092652;28;20047;-71
2021/05/29 04:04:44;;;;;;;;;;;15.20;66.90;;;;;;5075283;28;20105;-72
2021/05/29 04:07:10;;;;;;;9.65;2.50;;;15.20;65.60;;;;;;5074795;28;19916;-72
2021/05/29 04:09:37;;;;;;;6.30;2.83;;;15.10;66.60;;;;;;5092654;28;20043;-71
2021/05/29 04:12:04;;;;;;;8.30;2.60;;;15.10;66.90;;;;;;5093070;28;20040;-72
2021/05/29 04:14:30;;;;;;;6.18;2.63;;;15.10;67.00;;;;;;5074609;28;20485;-71
2021/05/29 04:16:56;;;;;;;5.80;2.63;;;15.10;67.10;;;;;;5074708;28;20043;-72
2021/05/29 04:19:22;;;;;;;7.07;3.03;;;15.10;67.20;;;;;;5092534;28;20124;-71
2021/05/29 04:21:49;;;;;;;5.78;2.75;;;15.10;67.20;;;;;;5074720;28;20400;-72
2021/05/29 04:24:15;;;;;;;9.02;2.47;;;15.10;67.40;;;;;;5092539;28;20446;-72
2021/05/29 04:26:41;;;;;;;6.10;3.22;;;15.10;67.50;;;;;;5092435;28;20048;-71
2021/05/29 04:29:07;;;;;;;;;;;15.20;67.50;;;;;;5074847;28;20045;-72
2021/05/29 04:31:34;;;;;;;7.05;3.10;;;15.10;66.40;;;;;;5092760;28;20348;-71
2021/05/29 04:34:00;;;;;;;6.80;3.53;;;15.10;67.20;;;;;;5074394;28;20040;-73
2021/05/29 04:36:26;;;;;;;5.68;3.08;;;15.20;66.80;;;;;;5078403;28;20110;-72
2021/05/29 04:38:52;;;;;;;6.55;3.67;;;15.40;66.70;;;;;;5096254;28;20048;-71
2021/05/29 04:41:20;;;;;;;;;;;15.40;66.60;;;;;;5097053;28;20048;-71
2021/05/29 04:43:48;;;;;;;5.53;3.22;;;15.50;65.40;;;;;;5096459;28;19916;-72
2021/05/29 04:46:14;;;;;;;6.90;3.90;;;15.50;66.40;;;;;;5077996;28;20047;-71
2021/05/29 04:48:40;;;;;;;;;;;15.60;66.50;;;;;;5096625;28;20043;-72
2021/05/29 04:53:51;;;;;;;9.20;3.90;;;15.70;66.30;;;;;;5080575;28;20117;-72
2021/05/29 04:56:17;;;;;;;6.40;3.53;;;15.80;66.40;;;;;;5061177;28;20059;-71
2021/05/29 04:58:43;;;;;;;9.50;3.85;;;15.90;65.90;;;;;;5077682;28;20475;-72
2021/05/29 05:01:12;;;;;;;8.40;3.92;;;16.00;66.50;;;;;;5077909;28;20492;-71
2021/05/29 05:03:39;;;;;;;8.00;4.00;;;16.10;66.30;;;;;;5095776;28;20047;-71
2021/05/29 05:06:26;;;;;;;6.28;3.35;;;16.20;65.90;;;;;;5077766;28;20085;-72
2021/05/29 05:08:53;;;;;;;11.03;3.53;;;16.20;65.70;;;;;;5077545;28;20036;-72
2021/05/29 05:11:19;;;;;;;8.57;4.60;;;16.40;65.50;;;;;;5060888;28;21040;-72
2021/05/29 05:13:47;;;;;;;12.10;6.07;;;16.50;65.20;;;;;;5077563;28;20096;-71
2021/05/29 05:16:32;;;;;;;15.48;6.22;;;16.60;64.70;;;;;;5095831;28;20450;-72
2021/05/29 05:18:59;;;;;;;17.95;10.63;;;16.60;64.60;;;;;;5077491;28;20047;-71
2021/05/29 05:21:25;;;;;;;29.42;16.25;;;16.70;64.40;;;;;;5077453;28;20119;-72
2021/05/29 05:23:53;;;;;;;;;;;16.70;64.20;;;;;;5061177;28;20066;-72
2021/05/29 05:26:20;;;;;;;12.82;6.40;;;16.80;63.30;;;;;;5094312;28;19916;-72
2021/05/29 05:28:46;;;;;;;;;;;16.90;63.90;;;;;;5077777;28;20050;-71
2021/05/29 05:31:13;;;;;;;9.00;5.40;;;17.00;63.00;;;;;;5077400;28;19916;-72
2021/05/29 05:33:42;;;;;;;8.68;4.18;;;17.00;62.70;;;;;;5077249;28;20598;-71
2021/05/29 05:36:09;;;;;;;7.15;3.58;;;17.20;63.10;;;;;;5077704;28;20399;-72
2021/05/29 05:38:54;;;;;;;6.30;3.40;;;17.30;62.80;;;;;;5095168;28;20059;-72
2021/05/29 05:41:21;;;;;;;30.50;4.20;;;17.40;62.60;;;;;;5077170;28;20036;-71
2021/05/29 05:43:49;;;;;;;;;;;17.50;62.40;;;;;;5060778;28;20048;-71
2021/05/29 05:46:16;;;;;;;8.68;3.92;;;17.50;61.70;;;;;;5094909;28;19923;-71
2021/05/29 05:48:43;;;;;;;7.00;3.70;;;17.60;61.60;;;;;;5094933;28;20122;-71
2021/05/29 05:51:09;;;;;;;6.85;3.25;;;17.80;61.40;;;;;;5094666;28;20403;-72
2021/05/29 05:53:35;;;;;;;7.88;3.67;;;17.90;61.40;;;;;;5076829;28;20496;-72
2021/05/29 05:56:05;;;;;;;6.78;3.15;;;18.00;61.00;;;;;;5094940;28;20050;-72
2021/05/29 05:58:50;;;;;;;8.10;3.60;;;18.10;60.40;;;;;;5076968;28;20036;-71
2021/05/29 06:01:17;;;;;;;6.72;3.30;;;18.20;60.30;;;;;;5059916;28;20135;-72
2021/05/29 06:03:43;;;;;;;;;;;18.30;60.00;;;;;;5076999;28;20046;-73
2021/05/29 06:06:09;;;;;;;9.65;4.00;;;18.30;59.40;;;;;;5076589;28;20360;-72
2021/05/29 06:08:36;;;;;;;;;;;18.40;59.10;;;;;;5076997;28;20040;-71
2021/05/29 06:11:03;;;;;;;10.35;3.38;;;18.50;59.30;;;;;;5076645;28;20002;-71
2021/05/29 06:21:19;;;;;;;6.85;3.03;;;18.80;56.40;;;;;;5077723;28;20040;-72
2021/05/29 06:23:45;;;;;;;12.55;4.30;;;18.90;56.20;;;;;;5076172;28;20126;-73
2021/05/29 06:26:11;;;;;;;;;;;19.00;56.00;;;;;;5076629;28;20419;-72
2021/05/29 06:28:37;;;;;;;10.40;4.53;;;19.10;55.60;;;;;;5076017;28;20370;-72
2021/05/29 06:31:04;;;;;;;11.48;3.97;;;19.10;55.00;;;;;;5076156;28;20113;-71
2021/05/29 06:33:31;;;;;;;7.47;2.75;;;19.20;55.10;;;;;;5093996;28;20390;-72
2021/05/29 06:35:58;;;;;;;6.18;2.78;;;19.40;54.80;;;;;;5076231;28;20460;-73
2021/05/29 06:38:24;;;;;;;5.68;3.03;;;19.40;54.00;;;;;;5075768;28;20044;-72
2021/05/29 06:40:51;;;;;;;5.75;3.15;;;19.50;53.20;;;;;;5075903;28;20036;-72
2021/05/29 06:43:17;;;;;;;6.40;3.20;;;19.60;53.10;;;;;;5075900;28;20037;-72
2021/05/29 06:45:44;;;;;;;8.38;3.28;;;19.70;53.30;;;;;;5075690;28;20040;-72
2021/05/29 06:48:12;;;;;;;8.50;3.90;;;19.80;53.10;;;;;;5093811;28;20553;-72
2021/05/29 06:50:38;;;;;;;9.50;3.45;;;19.80;52.50;;;;;;5075621;28;20047;-72
2021/05/29 06:53:09;;;;;;;7.88;3.35;;;19.90;53.30;;;;;;5093818;28;20245;-71
2021/05/29 06:58:48;;;;;;;10.25;4.05;;;20.00;52.20;;;;;;5093109;28;20050;-72
2021/05/29 07:01:17;;;;;;;6.57;3.40;;;20.00;52.10;;;;;;5093776;28;20181;-71
2021/05/29 07:03:45;;;;;;;7.00;2.97;;;20.00;51.30;;;;;;5075460;28;20573;-72
2021/05/29 07:06:11;;;;;;;6.90;3.30;;;19.80;50.70;;;;;;5093674;28;20040;-72
2021/05/29 07:08:38;;;;;;;7.18;3.13;;;19.80;50.50;;;;;;5093449;28;20055;-72
2021/05/29 07:11:06;;;;;;;6.47;3.10;;;19.70;50.40;;;;;;5093589;28;20040;-73
2021/05/29 07:13:32;;;;;;;7.22;3.50;;;19.80;50.60;;;;;;5075290;28;20691;-71
2021/05/29 07:16:00;;;;;;;7.25;3.33;;;19.80;50.60;;;;;;5074966;28;20043;-72
2021/05/29 07:21:14;;;;;;;5.78;2.72;;;20.00;50.20;;;;;;5078069;28;20039;-72
2021/05/29 07:23:41;;;;;;;6.10;2.90;;;20.20;49.30;;;;;;5075106;28;20040;-72
2021/05/29 07:26:07;;;;;;;6.45;2.65;;;20.30;49.10;;;;;;5093255;28;20040;-71
2021/05/29 07:28:34;;;;;;;7.20;2.90;;;20.30;48.50;;;;;;5093102;28;20052;-73
2021/05/29 07:31:01;;;;;;;7.88;2.30;;;20.40;48.00;;;;;;5058346;28;20373;-72
2021/05/29 07:33:27;;;;;;;4.75;2.15;;;20.30;47.50;;;;;;5058214;28;20036;-72
2021/05/29 07:35:54;;;;;;;5.82;2.22;;;20.30;47.30;;;;;;5058315;28;20729;-71
2021/05/29 07:38:23;;;;;;;5.57;2.10;;;20.20;46.10;;;;;;5074615;28;20408;-71
2021/05/29 07:40:49;;;;;;;4.32;2.08;;;20.10;46.10;;;;;;5058136;28;20034;-72
2021/05/29 07:43:16;;;;;;;4.93;2.10;;;20.10;45.40;;;;;;5092932;28;20040;-71
2021/05/29 07:45:42;;;;;;;4.43;2.00;;;20.30;45.20;;;;;;5074680;28;20032;-71
2021/05/29 07:48:09;;;;;;;4.20;2.08;;;20.60;45.60;;;;;;5074891;28;20434;-71
2021/05/29 07:50:56;;;;;;;5.32;2.15;;;20.80;44.60;;;;;;5072570;28;20442;-72
2021/05/29 07:53:22;;;;;;;7.20;2.22;;;20.90;44.90;;;;;;5057323;28;20044;-71
2021/05/29 07:55:48;;;;;;;4.78;1.85;;;21.00;44.40;;;;;;5072714;28;20079;-72
2021/05/29 07:58:14;;;;;;;;;;;21.10;43.90;;;;;;5073061;28;20044;-71
2021/05/29 08:00:43;;;;;;;5.90;2.08;;;21.10;43.60;;;;;;5071314;28;19919;-72
2021/05/29 08:03:09;;;;;;;5.13;2.10;;;21.20;43.60;;;;;;5054542;28;20608;-72
2021/05/29 08:05:35;;;;;;;5.80;2.03;;;21.20;43.80;;;;;;5054501;28;20128;-71
2021/05/29 08:08:02;;;;;;;4.85;1.98;;;21.20;43.40;;;;;;5054435;28;20048;-71
2021/05/29 08:10:28;;;;;;;7.13;2.00;;;21.10;43.30;;;;;;5050983;28;20035;-72
2021/05/29 08:12:54;;;;;;;4.90;1.92;;;21.00;43.30;;;;;;5054312;28;20091;-72
2021/05/29 08:15:21;;;;;;;;;;;20.90;43.10;;;;;;5060999;28;20120;-72
2021/05/29 08:17:47;;;;;;;5.83;1.93;;;20.90;43.70;;;;;;5074940;28;19927;-72
2021/05/29 08:20:13;;;;;;;5.38;2.28;;;20.80;43.20;;;;;;5054265;28;20037;-72
2021/05/29 08:22:40;;;;;;;9.70;2.17;;;20.80;43.40;;;;;;5038461;28;20068;-73
2021/05/29 08:25:07;;;;;;;;;;;20.90;43.60;;;;;;5038843;28;20037;-72
2021/05/29 08:27:33;;;;;;;4.47;1.60;;;21.00;43.20;;;;;;5048758;28;20011;-71
2021/05/29 08:30:00;;;;;;;;;;;21.30;43.00;;;;;;5075416;28;20063;-72
2021/05/29 08:32:26;;;;;;;8.60;1.98;;;21.50;43.20;;;;;;5075814;28;19995;-71
2021/05/29 08:34:52;;;;;;;4.90;1.88;;;21.70;42.50;;;;;;5076061;28;20033;-72
2021/05/29 08:37:18;;;;;;;;;;;21.90;42.30;;;;;;5058817;28;20060;-72
2021/05/29 08:39:44;;;;;;;7.13;2.03;;;21.90;41.80;;;;;;5073881;28;19924;-71
2021/05/29 08:42:10;;;;;;;;;;;22.10;41.20;;;;;;5051307;28;20033;-71
2021/05/29 08:44:36;;;;;;;4.45;2.00;;;22.20;41.10;;;;;;5058007;28;19920;-72
2021/05/29 08:47:03;;;;;;;3.70;1.90;;;22.30;40.30;;;;;;5075653;28;20453;-71
2021/05/29 08:49:30;;;;;;;5.45;2.10;;;22.30;39.70;;;;;;5057992;28;20454;-71
2021/05/29 08:51:58;;;;;;;7.70;2.17;;;22.50;40.40;;;;;;5075778;28;20075;-72
2021/05/29 08:54:28;;;;;;;5.35;2.10;;;22.70;40.10;;;;;;5074576;28;20040;-72
2021/05/29 08:56:54;;;;;;;4.88;2.10;;;22.80;39.50;;;;;;5075676;28;20044;-71
2021/05/29 08:59:20;;;;;;;4.35;1.70;;;23.20;39.60;;;;;;5061074;28;20127;-72
2021/05/29 09:01:46;;;;;;;4.75;2.10;;;23.60;38.80;;;;;;5096240;28;20036;-72
2021/05/29 09:04:12;;;;;;;5.05;1.90;;;23.80;38.40;;;;;;5077598;28;20044;-72
2021/05/29 09:06:42;;;;;;;3.97;1.80;;;24.00;38.20;;;;;;5095842;28;20048;-71
2021/05/29 09:09:11;;;;;;;4.55;2.28;;;24.30;37.50;;;;;;5077514;28;20040;-72
2021/05/29 09:12:03;;;;;;;5.97;2.30;;;24.70;36.80;;;;;;5077702;28;20036;-72
2021/05/29 09:14:48;;;;;;;8.07;2.05;;;25.30;36.00;;;;;;5078258;28;20044;-72
2021/05/29 09:17:38;;;;;;;4.57;1.90;;;25.70;35.40;;;;;;5077307;28;20044;-71
2021/05/29 09:20:23;;;;;;;6.32;2.17;;;26.20;35.30;;;;;;5076845;28;20110;-72
2021/05/29 09:23:11;;;;;;;4.03;2.03;;;26.80;33.60;;;;;;5077517;28;20467;-72
2021/05/29 09:26:08;;;;;;;3.92;2.20;;;27.50;33.30;;;;;;5077276;28;20032;-72
2021/05/29 09:28:34;;;;;;;4.07;1.85;;;27.20;32.60;;;;;;5094448;28;20044;-71
2021/05/29 09:31:01;;;;;;;6.10;2.10;;;27.80;31.60;;;;;;5076801;28;20101;-72
2021/05/29 09:33:34;;;;;;;4.60;1.88;;;28.50;30.70;;;;;;5095213;28;20093;-72
2021/05/29 09:36:01;;;;;;;6.53;2.10;;;28.80;30.20;;;;;;5095395;28;20040;-73
2021/05/29 09:38:53;;;;;;;4.80;2.10;;;28.60;30.30;;;;;;5090112;28;20047;-72
2021/05/29 09:41:42;;;;;;;4.30;1.70;;;28.20;30.70;;;;;;5068921;28;20056;-73
2021/05/29 09:44:11;;;;;;;4.50;1.80;;;28.20;30.90;;;;;;5084679;28;20040;-71
2021/05/29 09:46:58;;;;;;;4.15;1.80;;;28.00;30.20;;;;;;5078942;28;20039;-72
2021/05/29 09:50:06;;;;;;;4.07;1.80;;;27.70;29.70;;;;;;5075322;28;20048;-72
2021/05/29 09:52:50;;;;;;;5.38;2.38;;;27.40;30.30;;;;;;5092087;28;20058;-72
2021/05/29 09:55:16;;;;;;;8.98;6.18;;;27.20;30.00;;;;;;5092122;28;20128;-72
2021/05/29 09:58:01;;;;;;;5.05;2.35;;;27.10;30.10;;;;;;5076757;28;20055;-72
2021/05/29 10:00:47;;;;;;;6.70;3.47;;;27.60;29.90;;;;;;5094756;28;20036;-72
2021/05/29 10:03:13;;;;;;;6.90;3.90;;;27.90;29.40;;;;;;5076507;28;20560;-72
2021/05/29 10:05:43;;;;;;;5.53;2.22;;;28.10;29.50;;;;;;5074505;28;20344;-71
2021/05/29 10:08:13;;;;;;;5.32;2.88;;;28.60;28.60;;;;;;5074316;28;20048;-72
2021/05/29 10:10:40;;;;;;;5.75;2.80;;;29.70;27.80;;;;;;5056509;28;20036;-73
2021/05/29 10:13:06;;;;;;;4.68;2.13;;;30.80;27.00;;;;;;5056443;28;20066;-72
2021/05/29 10:15:33;;;;;;;4.72;2.20;;;31.80;26.60;;;;;;5056339;28;20041;-72
2021/05/29 10:18:02;;;;;;;5.70;2.20;;;32.40;26.10;;;;;;5056095;28;20509;-72
2021/05/29 10:20:32;;;;;;;5.70;2.90;;;32.80;25.40;;;;;;5058130;28;20087;-72
2021/05/29 10:23:00;;;;;;;5.32;2.30;;;32.90;24.00;;;;;;5076153;28;20535;-73
2021/05/29 10:25:26;;;;;;;5.85;3.08;;;33.40;24.30;;;;;;5076172;28;20391;-72
2021/05/29 10:27:56;;;;;;;4.35;2.05;;;34.00;23.30;;;;;;5076103;28;20105;-73
2021/05/29 10:30:27;;;;;;;4.00;1.77;;;34.50;22.90;;;;;;5076286;28;20054;-73
2021/05/29 10:33:15;;;;;;;4.40;2.10;;;35.40;21.80;;;;;;5058557;28;20504;-73
2021/05/29 10:35:43;;;;;;;3.55;1.85;;;35.80;21.30;;;;;;5075911;28;20044;-73
2021/05/29 10:38:10;;;;;;;4.95;2.20;;;35.90;20.00;;;;;;5059300;28;20142;-72
2021/05/29 10:40:42;;;;;;;6.00;2.40;;;36.30;20.20;;;;;;5075894;28;20036;-72
2021/05/29 10:43:46;;;;;;;3.63;1.77;;;37.20;20.20;;;;;;5076012;28;20055;-73
2021/05/29 10:46:14;;;;;;;6.53;1.50;;;37.90;20.00;;;;;;5093963;28;20451;-73
2021/05/29 10:48:58;;;;;;;4.05;1.77;;;38.50;19.00;;;;;;5072260;28;20399;-73
2021/05/29 10:51:38;;;;;;;4.10;2.00;;;39.40;18.80;;;;;;5055440;28;20056;-72
2021/05/29 10:54:24;;;;;;;4.60;1.63;;;39.90;17.90;;;;;;5072121;28;20044;-73
2021/05/29 10:57:09;;;;;;;;;;;40.30;17.60;;;;;;5074452;28;20401;-73
2021/05/29 10:59:38;;;;;;;3.75;2.20;;;41.00;18.70;;;;;;5055608;28;19921;-72
2021/05/29 11:02:05;;;;;;;3.88;2.10;;;41.50;16.70;;;;;;5088278;28;20411;-73
2021/05/29 11:04:32;;;;;;;5.70;2.53;;;41.80;15.40;;;;;;5090278;28;20074;-73
2021/05/29 11:07:18;;;;;;;5.32;1.90;;;41.90;15.30;;;;;;5058005;28;20403;-73
2021/05/29 11:09:49;;;;;;;;;;;42.40;16.10;;;;;;5078152;28;20094;-73
2021/05/29 11:12:16;;;;;;;4.95;2.13;;;42.90;16.20;;;;;;5093793;28;19947;-73
2021/05/29 11:14:56;;;;;;;5.05;2.25;;;43.30;15.30;;;;;;5078507;28;20047;-73
2021/05/29 11:17:41;;;;;;;6.00;1.95;;;43.70;15.20;;;;;;5095895;28;20039;-74
2021/05/29 11:20:26;;;;;;;3.22;1.80;;;44.20;14.50;;;;;;5100662;28;20040;-73
2021/05/29 11:22:53;;;;;;;4.30;1.63;;;44.50;14.60;;;;;;5075259;28;20123;-72
2021/05/29 11:25:23;;;;;;;5.97;2.10;;;44.70;14.40;;;;;;5075166;28;20051;-73
2021/05/29 11:27:50;;;;;;;5.43;1.77;;;44.80;13.90;;;;;;5075249;28;20054;-73
2021/05/29 11:30:35;;;;;;;7.22;1.83;;;44.60;13.70;;;;;;5074645;28;20042;-73
2021/05/29 11:38:36;;;;;;;4.30;2.15;;;44.80;13.60;;;;;;5097326;28;20144;-72
2021/05/29 11:41:17;;;;;;;3.75;1.60;;;45.10;13.70;;;;;;5092897;28;20043;-73
2021/05/29 11:43:50;;;;;;;4.47;2.13;;;44.50;14.10;;;;;;5074688;28;20508;-73
2021/05/29 11:46:36;;;;;;;2.75;1.63;;;44.90;13.10;;;;;;5074426;28;20046;-73
2021/05/29 11:49:20;;;;;;;3.65;1.90;;;43.60;13.70;;;;;;5071275;28;20397;-72
2021/05/29 11:51:47;;;;;;;3.65;1.73;;;42.20;14.80;;;;;;5071482;28;20056;-73
2021/05/29 11:54:16;;;;;;;4.57;2.25;;;41.60;14.70;;;;;;5072586;28;20528;-73
2021/05/29 11:57:02;;;;;;;4.93;1.60;;;40.90;14.90;;;;;;5057012;28;20404;-74
2021/05/29 11:59:28;;;;;;;6.03;1.77;;;40.20;15.80;;;;;;5081503;28;20039;-73
2021/05/29 12:01:55;;;;;;;6.28;1.67;;;39.80;16.20;;;;;;5061713;28;20044;-72
2021/05/29 12:04:40;;;;;;;3.55;1.52;;;40.60;15.80;;;;;;5057530;28;20036;-72
2021/05/29 12:07:06;;;;;;;4.43;1.98;;;40.30;15.90;;;;;;5064761;28;20037;-73
2021/05/29 12:09:51;;;;;;;4.32;2.15;;;40.10;16.20;;;;;;5074514;28;20033;-73
2021/05/29 12:12:20;;;;;;;13.77;2.00;;;40.00;16.30;;;;;;5088870;28;20041;-72
2021/05/29 12:14:49;;;;;;;4.07;2.30;;;39.90;16.30;;;;;;5072429;28;20037;-72
2021/05/29 12:17:16;;;;;;;5.32;1.67;;;39.60;16.40;;;;;;5071416;28;20045;-72
2021/05/29 12:20:03;;;;;;;4.88;2.22;;;39.00;17.10;;;;;;5054463;28;20036;-72
2021/05/29 12:22:30;;;;;;;4.65;2.50;;;38.70;17.40;;;;;;5071659;28;20140;-72
2021/05/29 12:25:18;;;;;;;3.40;1.80;;;38.60;17.30;;;;;;5074609;28;20093;-73
2021/05/29 12:27:50;;;;;;;3.65;2.00;;;38.60;17.10;;;;;;5074421;28;20090;-73
2021/05/29 12:30:17;;;;;;;4.55;2.50;;;39.50;17.00;;;;;;5074772;28;20036;-72
2021/05/29 12:33:23;;;;;;;8.75;2.20;;;39.70;16.20;;;;;;5057664;28;20512;-72
2021/05/29 12:36:04;;;;;;;4.22;1.98;;;38.90;16.90;;;;;;5092458;28;20040;-72
2021/05/29 12:38:33;;;;;;;11.23;3.25;;;38.40;17.60;;;;;;5073534;28;20051;-73
2021/05/29 12:41:11;;;;;;;4.15;2.10;;;38.30;18.20;;;;;;5074000;28;20040;-72
2021/05/29 12:43:39;;;;;;;5.07;2.10;;;38.20;17.40;;;;;;5067256;28;20066;-72
2021/05/29 12:46:06;;;;;;;3.97;1.95;;;37.30;18.20;;;;;;5074314;28;20036;-72
2021/05/29 12:48:32;;;;;;;5.75;1.90;;;36.50;18.90;;;;;;5073839;28;20048;-72
2021/05/29 12:51:00;;;;;;;5.07;2.25;;;35.60;19.70;;;;;;5073799;28;20301;-72
2021/05/29 12:53:33;;;;;;;4.25;2.00;;;34.80;20.50;;;;;;5074425;28;20033;-72
2021/05/29 12:56:19;;;;;;;4.70;2.15;;;34.30;21.00;;;;;;5074844;28;20445;-72
2021/05/29 12:59:25;;;;;;;3.83;1.80;;;34.40;21.10;;;;;;5095249;28;20119;-72
2021/05/29 13:07:44;;;;;;;6.85;2.10;;;33.10;21.90;;;;;;5080040;28;20101;-72
2021/05/29 13:13:18;;;;;;;4.47;2.20;;;31.80;23.30;;;;;;5078220;28;20051;-72
2021/05/29 13:15:44;;;;;;;7.13;2.88;;;31.20;24.30;;;;;;5095724;28;20048;-73
2021/05/29 13:18:18;;;;;;;12.40;4.40;;;30.60;24.60;;;;;;5073763;28;20500;-72
2021/05/29 13:20:46;;;;;;;5.30;2.80;;;30.00;25.50;;;;;;5076787;28;20457;-72
2021/05/29 13:23:14;;;;;;;5.80;2.70;;;29.50;25.90;;;;;;5060956;28;20392;-72
2021/05/29 13:25:46;;;;;;;5.03;2.35;;;29.10;26.60;;;;;;5077386;28;20377;-71
2021/05/29 13:28:16;;;;;;;6.32;2.83;;;28.70;26.80;;;;;;5077293;28;20445;-72
2021/05/29 13:30:46;;;;;;;7.55;3.30;;;28.40;27.20;;;;;;5057384;28;20068;-72
2021/05/29 13:33:32;;;;;;;6.22;3.75;;;28.10;27.70;;;;;;5075126;28;20066;-72
2021/05/29 13:35:58;;;;;;;;;;;27.70;27.80;;;;;;5077534;28;20047;-72
2021/05/29 13:38:25;;;;;;;5.17;2.53;;;27.50;27.80;;;;;;5077195;28;19920;-72
2021/05/29 13:40:51;;;;;;;6.18;2.83;;;27.20;28.80;;;;;;5095261;28;20457;-72